sensor_id;sensor_type;location;lat;lon;timestamp;P1;durP1;ratioP1;P2;durP2;ratioP2
36709;SDS011;22694;51.040;3.684;2022-08-27T00:01:20;5.30;;;1.98;;
36709;SDS011;22694;51.040;3.684;2022-08-27T00:03:46;3.97;;;1.60;;
36709;SDS011;22694;51.040;3.684;2022-08-27T00:06:12;3.28;;;1.35;;
36709;SDS011;22694;51.040;3.684;2022-08-27T00:08:40;3.22;;;1.60;;
36709;SDS011;22694;51.040;3.684;2022-08-27T00:11:07;2.40;;;1.55;;
36709;SDS011;22694;51.040;3.684;2022-08-27T00:13:33;4.07;;;1.13;;
36709;SDS011;22694;51.040;3.684;2022-08-27T00:16:00;2.80;;;1.58;;
36709;SDS011;22694;51.040;3.684;2022-08-27T00:18:27;2.95;;;1.60;;
36709;SDS011;22694;51.040;3.684;2022-08-27T00:20:52;2.17;;;1.38;;
36709;SDS011;22694;51.040;3.684;2022-08-27T00:23:18;2.08;;;1.17;;
36709;SDS011;22694;51.040;3.684;2022-08-27T00:25:43;4.15;;;1.48;;
36709;SDS011;22694;51.040;3.684;2022-08-27T00:28:09;1.85;;;1.40;;
36709;SDS011;22694;51.040;3.684;2022-08-27T00:30:35;3.80;;;1.58;;
36709;SDS011;22694;51.040;3.684;2022-08-27T00:33:01;3.45;;;1.63;;
36709;SDS011;22694;51.040;3.684;2022-08-27T00:35:29;3.22;;;1.50;;
36709;SDS011;22694;51.040;3.684;2022-08-27T00:37:55;3.05;;;1.33;;
36709;SDS011;22694;51.040;3.684;2022-08-27T00:40:21;2.85;;;1.30;;
36709;SDS011;22694;51.040;3.684;2022-08-27T00:42:47;1.65;;;1.20;;
36709;SDS011;22694;51.040;3.684;2022-08-27T00:45:13;1.88;;;1.40;;
36709;SDS011;22694;51.040;3.684;2022-08-27T00:47:46;2.28;;;1.42;;
36709;SDS011;22694;51.040;3.684;2022-08-27T00:50:16;2.08;;;1.85;;
36709;SDS011;22694;51.040;3.684;2022-08-27T00:52:55;2.22;;;1.10;;
36709;SDS011;22694;51.040;3.684;2022-08-27T00:55:33;2.17;;;1.50;;
36709;SDS011;22694;51.040;3.684;2022-08-27T01:00:50;2.38;;;1.52;;
36709;SDS011;22694;51.040;3.684;2022-08-27T01:03:16;3.50;;;1.63;;
36709;SDS011;22694;51.040;3.684;2022-08-27T01:05:42;3.55;;;1.67;;
36709;SDS011;22694;51.040;3.684;2022-08-27T01:08:12;2.63;;;1.40;;
36709;SDS011;22694;51.040;3.684;2022-08-27T01:10:41;2.33;;;1.20;;
36709;SDS011;22694;51.040;3.684;2022-08-27T01:13:08;3.63;;;1.30;;
36709;SDS011;22694;51.040;3.684;2022-08-27T01:15:36;3.75;;;1.50;;
36709;SDS011;22694;51.040;3.684;2022-08-27T01:18:05;1.77;;;1.40;;
36709;SDS011;22694;51.040;3.684;2022-08-27T01:21:19;2.65;;;1.55;;
36709;SDS011;22694;51.040;3.684;2022-08-27T01:25:58;3.03;;;1.58;;
36709;SDS011;22694;51.040;3.684;2022-08-27T01:28:25;1.60;;;1.42;;
36709;SDS011;22694;51.040;3.684;2022-08-27T01:30:53;2.00;;;1.40;;
36709;SDS011;22694;51.040;3.684;2022-08-27T01:33:19;2.65;;;1.55;;
36709;SDS011;22694;51.040;3.684;2022-08-27T01:35:46;2.70;;;1.38;;
36709;SDS011;22694;51.040;3.684;2022-08-27T01:38:13;2.38;;;1.50;;
36709;SDS011;22694;51.040;3.684;2022-08-27T01:40:40;1.98;;;1.42;;
36709;SDS011;22694;51.040;3.684;2022-08-27T01:43:06;2.15;;;1.63;;
36709;SDS011;22694;51.040;3.684;2022-08-27T01:45:33;2.42;;;1.42;;
36709;SDS011;22694;51.040;3.684;2022-08-27T01:48:01;2.92;;;1.80;;
36709;SDS011;22694;51.040;3.684;2022-08-27T01:50:29;4.07;;;1.85;;
36709;SDS011;22694;51.040;3.684;2022-08-27T01:53:01;2.35;;;1.58;;
36709;SDS011;22694;51.040;3.684;2022-08-27T01:55:29;2.40;;;1.80;;
36709;SDS011;22694;51.040;3.684;2022-08-27T01:57:54;2.22;;;1.67;;
36709;SDS011;22694;51.040;3.684;2022-08-27T02:00:25;1.77;;;1.35;;
36709;SDS011;22694;51.040;3.684;2022-08-27T02:02:53;3.20;;;1.70;;
36709;SDS011;22694;51.040;3.684;2022-08-27T02:05:20;2.45;;;1.70;;
36709;SDS011;22694;51.040;3.684;2022-08-27T02:07:46;2.90;;;1.67;;
36709;SDS011;22694;51.040;3.684;2022-08-27T02:10:13;2.90;;;1.65;;
36709;SDS011;22694;51.040;3.684;2022-08-27T02:12:41;3.92;;;1.60;;
36709;SDS011;22694;51.040;3.684;2022-08-27T02:15:07;2.78;;;1.90;;
36709;SDS011;22694;51.040;3.684;2022-08-27T02:17:33;2.10;;;1.90;;
36709;SDS011;22694;51.040;3.684;2022-08-27T02:19:59;2.17;;;1.55;;
36709;SDS011;22694;51.040;3.684;2022-08-27T02:22:26;1.58;;;1.48;;
36709;SDS011;22694;51.040;3.684;2022-08-27T02:24:52;3.88;;;1.70;;
36709;SDS011;22694;51.040;3.684;2022-08-27T02:27:18;2.50;;;1.55;;
36709;SDS011;22694;51.040;3.684;2022-08-27T02:29:44;1.92;;;1.55;;
36709;SDS011;22694;51.040;3.684;2022-08-27T02:32:12;1.67;;;1.35;;
36709;SDS011;22694;51.040;3.684;2022-08-27T02:34:38;1.92;;;1.33;;
36709;SDS011;22694;51.040;3.684;2022-08-27T02:37:03;2.80;;;1.58;;
36709;SDS011;22694;51.040;3.684;2022-08-27T02:39:29;2.75;;;1.48;;
36709;SDS011;22694;51.040;3.684;2022-08-27T02:41:55;3.63;;;1.52;;
36709;SDS011;22694;51.040;3.684;2022-08-27T02:44:20;1.67;;;1.48;;
36709;SDS011;22694;51.040;3.684;2022-08-27T02:46:46;1.65;;;1.52;;
36709;SDS011;22694;51.040;3.684;2022-08-27T02:49:12;2.22;;;1.55;;
36709;SDS011;22694;51.040;3.684;2022-08-27T02:51:39;1.90;;;1.50;;
36709;SDS011;22694;51.040;3.684;2022-08-27T02:54:05;2.17;;;1.50;;
36709;SDS011;22694;51.040;3.684;2022-08-27T02:56:31;1.98;;;1.50;;
36709;SDS011;22694;51.040;3.684;2022-08-27T02:58:56;1.70;;;1.60;;
36709;SDS011;22694;51.040;3.684;2022-08-27T03:01:23;3.60;;;1.67;;
36709;SDS011;22694;51.040;3.684;2022-08-27T03:03:49;2.75;;;1.80;;
36709;SDS011;22694;51.040;3.684;2022-08-27T03:06:15;1.60;;;1.50;;
36709;SDS011;22694;51.040;3.684;2022-08-27T03:08:41;2.13;;;1.50;;
36709;SDS011;22694;51.040;3.684;2022-08-27T03:11:06;2.20;;;1.55;;
36709;SDS011;22694;51.040;3.684;2022-08-27T03:13:36;1.80;;;1.38;;
36709;SDS011;22694;51.040;3.684;2022-08-27T03:16:03;2.53;;;1.50;;
36709;SDS011;22694;51.040;3.684;2022-08-27T03:18:30;1.90;;;1.50;;
36709;SDS011;22694;51.040;3.684;2022-08-27T03:20:57;2.00;;;1.15;;
36709;SDS011;22694;51.040;3.684;2022-08-27T03:23:28;2.22;;;1.75;;
36709;SDS011;22694;51.040;3.684;2022-08-27T03:26:00;3.55;;;1.98;;
36709;SDS011;22694;51.040;3.684;2022-08-27T03:28:33;1.98;;;1.58;;
36709;SDS011;22694;51.040;3.684;2022-08-27T03:31:00;3.67;;;1.52;;
36709;SDS011;22694;51.040;3.684;2022-08-27T03:33:32;2.42;;;2.05;;
36709;SDS011;22694;51.040;3.684;2022-08-27T03:36:01;2.67;;;1.50;;
36709;SDS011;22694;51.040;3.684;2022-08-27T03:38:28;1.42;;;1.33;;
36709;SDS011;22694;51.040;3.684;2022-08-27T03:40:54;2.30;;;1.50;;
36709;SDS011;22694;51.040;3.684;2022-08-27T03:43:20;3.30;;;1.83;;
36709;SDS011;22694;51.040;3.684;2022-08-27T03:45:47;6.07;;;2.22;;
36709;SDS011;22694;51.040;3.684;2022-08-27T03:48:14;2.25;;;1.65;;
36709;SDS011;22694;51.040;3.684;2022-08-27T03:50:41;2.08;;;1.80;;
36709;SDS011;22694;51.040;3.684;2022-08-27T03:53:08;2.92;;;1.70;;
36709;SDS011;22694;51.040;3.684;2022-08-27T03:55:35;4.10;;;1.70;;
36709;SDS011;22694;51.040;3.684;2022-08-27T03:58:00;3.17;;;1.73;;
36709;SDS011;22694;51.040;3.684;2022-08-27T04:00:26;2.47;;;1.60;;
36709;SDS011;22694;51.040;3.684;2022-08-27T04:02:52;3.13;;;1.40;;
36709;SDS011;22694;51.040;3.684;2022-08-27T04:05:19;1.80;;;1.50;;
36709;SDS011;22694;51.040;3.684;2022-08-27T04:07:46;1.98;;;1.60;;
36709;SDS011;22694;51.040;3.684;2022-08-27T04:10:12;2.85;;;1.88;;
36709;SDS011;22694;51.040;3.684;2022-08-27T04:12:39;1.88;;;1.60;;
36709;SDS011;22694;51.040;3.684;2022-08-27T04:15:05;2.92;;;1.90;;
36709;SDS011;22694;51.040;3.684;2022-08-27T04:17:33;2.22;;;1.80;;
36709;SDS011;22694;51.040;3.684;2022-08-27T04:19:59;3.35;;;1.92;;
36709;SDS011;22694;51.040;3.684;2022-08-27T04:22:25;2.53;;;1.80;;
36709;SDS011;22694;51.040;3.684;2022-08-27T04:24:51;3.55;;;1.90;;
36709;SDS011;22694;51.040;3.684;2022-08-27T04:27:17;2.95;;;1.98;;
36709;SDS011;22694;51.040;3.684;2022-08-27T04:29:44;1.65;;;1.30;;
36709;SDS011;22694;51.040;3.684;2022-08-27T04:32:10;2.15;;;1.35;;
36709;SDS011;22694;51.040;3.684;2022-08-27T04:34:36;2.75;;;1.90;;
36709;SDS011;22694;51.040;3.684;2022-08-27T04:37:02;5.07;;;1.98;;
36709;SDS011;22694;51.040;3.684;2022-08-27T04:39:28;3.17;;;2.25;;
36709;SDS011;22694;51.040;3.684;2022-08-27T04:41:55;4.18;;;1.98;;
36709;SDS011;22694;51.040;3.684;2022-08-27T04:44:22;2.42;;;1.80;;
36709;SDS011;22694;51.040;3.684;2022-08-27T04:46:52;2.97;;;2.25;;
36709;SDS011;22694;51.040;3.684;2022-08-27T04:49:20;2.08;;;1.80;;
36709;SDS011;22694;51.040;3.684;2022-08-27T04:51:45;2.55;;;2.08;;
36709;SDS011;22694;51.040;3.684;2022-08-27T04:54:11;2.95;;;2.33;;
36709;SDS011;22694;51.040;3.684;2022-08-27T04:56:37;2.20;;;1.67;;
36709;SDS011;22694;51.040;3.684;2022-08-27T04:59:04;2.92;;;2.15;;
36709;SDS011;22694;51.040;3.684;2022-08-27T05:01:32;5.70;;;2.08;;
36709;SDS011;22694;51.040;3.684;2022-08-27T05:03:58;2.42;;;2.00;;
36709;SDS011;22694;51.040;3.684;2022-08-27T05:06:25;2.88;;;2.50;;
36709;SDS011;22694;51.040;3.684;2022-08-27T05:08:51;3.60;;;2.15;;
36709;SDS011;22694;51.040;3.684;2022-08-27T05:11:18;4.88;;;2.05;;
36709;SDS011;22694;51.040;3.684;2022-08-27T05:13:45;3.45;;;2.20;;
36709;SDS011;22694;51.040;3.684;2022-08-27T05:16:12;2.67;;;2.30;;
36709;SDS011;22694;51.040;3.684;2022-08-27T05:18:40;3.97;;;2.53;;
36709;SDS011;22694;51.040;3.684;2022-08-27T05:21:06;3.35;;;2.22;;
36709;SDS011;22694;51.040;3.684;2022-08-27T05:23:33;3.50;;;2.30;;
36709;SDS011;22694;51.040;3.684;2022-08-27T05:25:59;2.40;;;2.20;;
36709;SDS011;22694;51.040;3.684;2022-08-27T05:28:26;3.67;;;2.25;;
36709;SDS011;22694;51.040;3.684;2022-08-27T05:30:53;3.05;;;1.80;;
36709;SDS011;22694;51.040;3.684;2022-08-27T05:33:26;2.20;;;2.00;;
36709;SDS011;22694;51.040;3.684;2022-08-27T05:35:53;2.60;;;2.15;;
36709;SDS011;22694;51.040;3.684;2022-08-27T05:38:21;2.67;;;2.28;;
36709;SDS011;22694;51.040;3.684;2022-08-27T05:40:49;2.33;;;2.00;;
36709;SDS011;22694;51.040;3.684;2022-08-27T05:43:14;2.83;;;2.00;;
36709;SDS011;22694;51.040;3.684;2022-08-27T05:45:42;2.28;;;2.10;;
36709;SDS011;22694;51.040;3.684;2022-08-27T05:48:11;2.65;;;2.05;;
36709;SDS011;22694;51.040;3.684;2022-08-27T05:50:39;2.10;;;1.90;;
36709;SDS011;22694;51.040;3.684;2022-08-27T05:53:07;2.20;;;1.80;;
36709;SDS011;22694;51.040;3.684;2022-08-27T05:55:43;2.25;;;2.05;;
36709;SDS011;22694;51.040;3.684;2022-08-27T05:58:10;2.28;;;2.05;;
36709;SDS011;22694;51.040;3.684;2022-08-27T06:00:57;2.13;;;1.70;;
36709;SDS011;22694;51.040;3.684;2022-08-27T06:03:30;3.00;;;1.90;;
36709;SDS011;22694;51.040;3.684;2022-08-27T06:06:03;2.67;;;2.17;;
36709;SDS011;22694;51.040;3.684;2022-08-27T06:08:31;2.30;;;2.10;;
36709;SDS011;22694;51.040;3.684;2022-08-27T06:10:58;2.20;;;2.00;;
36709;SDS011;22694;51.040;3.684;2022-08-27T06:13:26;2.65;;;2.20;;
36709;SDS011;22694;51.040;3.684;2022-08-27T06:16:00;2.78;;;2.03;;
36709;SDS011;22694;51.040;3.684;2022-08-27T06:18:31;2.65;;;1.40;;
36709;SDS011;22694;51.040;3.684;2022-08-27T06:20:57;2.10;;;1.60;;
36709;SDS011;22694;51.040;3.684;2022-08-27T06:23:23;2.00;;;1.52;;
36709;SDS011;22694;51.040;3.684;2022-08-27T06:25:49;3.58;;;1.60;;
36709;SDS011;22694;51.040;3.684;2022-08-27T06:28:15;1.48;;;1.38;;
36709;SDS011;22694;51.040;3.684;2022-08-27T06:30:44;2.20;;;1.50;;
36709;SDS011;22694;51.040;3.684;2022-08-27T06:33:09;2.35;;;1.50;;
36709;SDS011;22694;51.040;3.684;2022-08-27T06:35:35;2.17;;;1.45;;
36709;SDS011;22694;51.040;3.684;2022-08-27T06:38:01;2.75;;;1.42;;
36709;SDS011;22694;51.040;3.684;2022-08-27T06:40:26;1.50;;;1.25;;
36709;SDS011;22694;51.040;3.684;2022-08-27T06:42:53;2.00;;;1.38;;
36709;SDS011;22694;51.040;3.684;2022-08-27T06:45:18;1.65;;;1.25;;
36709;SDS011;22694;51.040;3.684;2022-08-27T06:47:44;1.52;;;1.42;;
36709;SDS011;22694;51.040;3.684;2022-08-27T06:50:10;1.70;;;1.60;;
36709;SDS011;22694;51.040;3.684;2022-08-27T06:52:36;1.48;;;1.38;;
36709;SDS011;22694;51.040;3.684;2022-08-27T06:55:01;1.88;;;1.48;;
36709;SDS011;22694;51.040;3.684;2022-08-27T06:57:28;2.25;;;1.80;;
36709;SDS011;22694;51.040;3.684;2022-08-27T06:59:53;2.25;;;2.05;;
36709;SDS011;22694;51.040;3.684;2022-08-27T07:02:19;3.53;;;2.25;;
36709;SDS011;22694;51.040;3.684;2022-08-27T07:04:45;3.25;;;2.20;;
36709;SDS011;22694;51.040;3.684;2022-08-27T07:07:11;4.95;;;2.05;;
36709;SDS011;22694;51.040;3.684;2022-08-27T07:09:38;2.58;;;2.28;;
36709;SDS011;22694;51.040;3.684;2022-08-27T07:12:04;2.50;;;2.03;;
36709;SDS011;22694;51.040;3.684;2022-08-27T07:14:31;3.88;;;2.30;;
36709;SDS011;22694;51.040;3.684;2022-08-27T07:16:57;3.65;;;2.60;;
36709;SDS011;22694;51.040;3.684;2022-08-27T07:19:23;2.45;;;2.22;;
36709;SDS011;22694;51.040;3.684;2022-08-27T07:21:49;2.72;;;2.47;;
36709;SDS011;22694;51.040;3.684;2022-08-27T07:24:15;3.15;;;2.60;;
36709;SDS011;22694;51.040;3.684;2022-08-27T07:26:41;5.22;;;2.60;;
36709;SDS011;22694;51.040;3.684;2022-08-27T07:29:10;2.67;;;2.45;;
36709;SDS011;22694;51.040;3.684;2022-08-27T07:31:38;3.35;;;2.53;;
36709;SDS011;22694;51.040;3.684;2022-08-27T07:34:05;2.88;;;2.58;;
36709;SDS011;22694;51.040;3.684;2022-08-27T07:36:32;2.92;;;2.22;;
36709;SDS011;22694;51.040;3.684;2022-08-27T07:38:58;3.25;;;2.30;;
36709;SDS011;22694;51.040;3.684;2022-08-27T07:41:24;4.07;;;2.63;;
36709;SDS011;22694;51.040;3.684;2022-08-27T07:43:50;3.05;;;2.10;;
36709;SDS011;22694;51.040;3.684;2022-08-27T07:46:51;3.05;;;2.15;;
36709;SDS011;22694;51.040;3.684;2022-08-27T07:49:18;4.28;;;2.42;;
36709;SDS011;22694;51.040;3.684;2022-08-27T07:51:46;2.67;;;2.30;;
36709;SDS011;22694;51.040;3.684;2022-08-27T07:54:11;3.97;;;2.35;;
36709;SDS011;22694;51.040;3.684;2022-08-27T07:56:37;3.22;;;2.10;;
36709;SDS011;22694;51.040;3.684;2022-08-27T07:59:03;4.10;;;2.10;;
36709;SDS011;22694;51.040;3.684;2022-08-27T08:01:29;3.65;;;1.83;;
36709;SDS011;22694;51.040;3.684;2022-08-27T08:03:54;2.60;;;1.75;;
36709;SDS011;22694;51.040;3.684;2022-08-27T08:06:20;3.95;;;1.98;;
36709;SDS011;22694;51.040;3.684;2022-08-27T08:08:46;3.67;;;1.77;;
36709;SDS011;22694;51.040;3.684;2022-08-27T08:11:13;3.03;;;1.92;;
36709;SDS011;22694;51.040;3.684;2022-08-27T08:13:41;3.67;;;1.80;;
36709;SDS011;22694;51.040;3.684;2022-08-27T08:16:07;3.17;;;1.60;;
36709;SDS011;22694;51.040;3.684;2022-08-27T08:18:35;2.83;;;1.67;;
36709;SDS011;22694;51.040;3.684;2022-08-27T08:21:04;3.90;;;1.92;;
36709;SDS011;22694;51.040;3.684;2022-08-27T08:23:32;2.85;;;1.83;;
36709;SDS011;22694;51.040;3.684;2022-08-27T08:25:58;3.30;;;2.05;;
36709;SDS011;22694;51.040;3.684;2022-08-27T08:28:25;6.43;;;1.75;;
36709;SDS011;22694;51.040;3.684;2022-08-27T08:30:53;5.82;;;1.75;;
36709;SDS011;22694;51.040;3.684;2022-08-27T08:33:19;4.88;;;1.85;;
36709;SDS011;22694;51.040;3.684;2022-08-27T08:35:45;5.95;;;1.88;;
36709;SDS011;22694;51.040;3.684;2022-08-27T08:38:12;5.15;;;1.60;;
36709;SDS011;22694;51.040;3.684;2022-08-27T08:40:43;4.80;;;2.20;;
36709;SDS011;22694;51.040;3.684;2022-08-27T08:46:02;4.80;;;2.00;;
36709;SDS011;22694;51.040;3.684;2022-08-27T08:48:36;21.58;;;10.68;;
36709;SDS011;22694;51.040;3.684;2022-08-27T08:56:20;25.85;;;11.55;;
36709;SDS011;22694;51.040;3.684;2022-08-27T08:58:55;23.58;;;13.18;;
36709;SDS011;22694;51.040;3.684;2022-08-27T09:01:51;20.63;;;10.30;;
36709;SDS011;22694;51.040;3.684;2022-08-27T09:04:16;31.80;;;14.38;;
36709;SDS011;22694;51.040;3.684;2022-08-27T09:06:53;33.80;;;15.25;;
36709;SDS011;22694;51.040;3.684;2022-08-27T09:09:53;33.33;;;17.05;;
36709;SDS011;22694;51.040;3.684;2022-08-27T09:12:22;33.38;;;16.90;;
36709;SDS011;22694;51.040;3.684;2022-08-27T09:14:52;37.65;;;17.25;;
36709;SDS011;22694;51.040;3.684;2022-08-27T09:17:22;22.55;;;11.95;;
36709;SDS011;22694;51.040;3.684;2022-08-27T09:19:48;16.45;;;7.90;;
36709;SDS011;22694;51.040;3.684;2022-08-27T09:25:13;11.65;;;5.22;;
36709;SDS011;22694;51.040;3.684;2022-08-27T09:27:51;11.32;;;5.30;;
36709;SDS011;22694;51.040;3.684;2022-08-27T09:30:21;11.93;;;5.40;;
36709;SDS011;22694;51.040;3.684;2022-08-27T09:32:55;8.90;;;4.50;;
36709;SDS011;22694;51.040;3.684;2022-08-27T09:35:24;10.13;;;4.38;;
36709;SDS011;22694;51.040;3.684;2022-08-27T09:37:54;9.50;;;4.20;;
36709;SDS011;22694;51.040;3.684;2022-08-27T09:40:26;7.95;;;3.60;;
36709;SDS011;22694;51.040;3.684;2022-08-27T09:42:57;6.45;;;3.60;;
36709;SDS011;22694;51.040;3.684;2022-08-27T09:45:32;6.20;;;3.03;;
36709;SDS011;22694;51.040;3.684;2022-08-27T09:48:12;5.68;;;3.20;;
36709;SDS011;22694;51.040;3.684;2022-08-27T09:50:50;7.35;;;3.40;;
36709;SDS011;22694;51.040;3.684;2022-08-27T09:53:26;10.15;;;5.18;;
36709;SDS011;22694;51.040;3.684;2022-08-27T09:55:54;21.55;;;12.20;;
36709;SDS011;22694;51.040;3.684;2022-08-27T09:58:22;37.90;;;19.30;;
36709;SDS011;22694;51.040;3.684;2022-08-27T10:01:05;34.15;;;16.65;;
36709;SDS011;22694;51.040;3.684;2022-08-27T10:03:40;30.20;;;15.57;;
36709;SDS011;22694;51.040;3.684;2022-08-27T10:06:07;30.63;;;15.60;;
36709;SDS011;22694;51.040;3.684;2022-08-27T10:08:39;22.48;;;13.00;;
36709;SDS011;22694;51.040;3.684;2022-08-27T10:11:10;21.80;;;12.48;;
36709;SDS011;22694;51.040;3.684;2022-08-27T10:14:15;19.63;;;10.40;;
36709;SDS011;22694;51.040;3.684;2022-08-27T10:17:07;18.83;;;9.82;;
36709;SDS011;22694;51.040;3.684;2022-08-27T10:28:09;8.77;;;4.65;;
36709;SDS011;22694;51.040;3.684;2022-08-27T10:41:53;5.97;;;3.17;;
36709;SDS011;22694;51.040;3.684;2022-08-27T10:50:07;8.88;;;2.92;;
36709;SDS011;22694;51.040;3.684;2022-08-27T10:52:42;4.55;;;2.53;;
36709;SDS011;22694;51.040;3.684;2022-08-27T10:55:19;3.63;;;2.40;;
36709;SDS011;22694;51.040;3.684;2022-08-27T11:03:32;6.35;;;2.60;;
36709;SDS011;22694;51.040;3.684;2022-08-27T11:06:36;4.72;;;2.47;;
36709;SDS011;22694;51.040;3.684;2022-08-27T11:09:43;4.05;;;2.15;;
36709;SDS011;22694;51.040;3.684;2022-08-27T11:12:40;3.95;;;2.00;;
36709;SDS011;22694;51.040;3.684;2022-08-27T11:15:18;2.78;;;1.75;;
36709;SDS011;22694;51.040;3.684;2022-08-27T11:21:18;5.05;;;1.92;;
36709;SDS011;22694;51.040;3.684;2022-08-27T11:23:31;2.85;;;1.80;;
36709;SDS011;22694;51.040;3.684;2022-08-27T11:26:05;1.95;;;1.50;;
36709;SDS011;22694;51.040;3.684;2022-08-27T11:28:34;3.65;;;2.25;;
36709;SDS011;22694;51.040;3.684;2022-08-27T11:33:39;3.60;;;1.73;;
36709;SDS011;22694;51.040;3.684;2022-08-27T11:42:18;1.77;;;1.20;;
36709;SDS011;22694;51.040;3.684;2022-08-27T11:47:39;2.08;;;1.17;;
36709;SDS011;22694;51.040;3.684;2022-08-27T11:50:15;4.60;;;1.52;;
36709;SDS011;22694;51.040;3.684;2022-08-27T11:52:53;2.40;;;1.52;;
36709;SDS011;22694;51.040;3.684;2022-08-27T11:58:22;2.13;;;1.05;;
36709;SDS011;22694;51.040;3.684;2022-08-27T12:00:51;2.50;;;1.20;;
36709;SDS011;22694;51.040;3.684;2022-08-27T12:05:44;2.03;;;1.50;;
36709;SDS011;22694;51.040;3.684;2022-08-27T12:08:30;3.88;;;1.45;;
36709;SDS011;22694;51.040;3.684;2022-08-27T12:11:05;3.05;;;1.50;;
36709;SDS011;22694;51.040;3.684;2022-08-27T12:16:24;3.17;;;1.88;;
36709;SDS011;22694;51.040;3.684;2022-08-27T12:27:14;3.22;;;1.88;;
36709;SDS011;22694;51.040;3.684;2022-08-27T12:29:57;4.20;;;2.60;;
36709;SDS011;22694;51.040;3.684;2022-08-27T12:37:44;3.80;;;1.70;;
36709;SDS011;22694;51.040;3.684;2022-08-27T12:40:25;3.80;;;2.08;;
36709;SDS011;22694;51.040;3.684;2022-08-27T12:43:06;6.07;;;2.30;;
36709;SDS011;22694;51.040;3.684;2022-08-27T12:45:40;4.38;;;1.85;;
36709;SDS011;22694;51.040;3.684;2022-08-27T12:48:10;2.17;;;1.73;;
36709;SDS011;22694;51.040;3.684;2022-08-27T12:50:36;3.67;;;2.22;;
36709;SDS011;22694;51.040;3.684;2022-08-27T12:53:11;3.67;;;1.77;;
36709;SDS011;22694;51.040;3.684;2022-08-27T12:56:16;2.55;;;1.70;;
36709;SDS011;22694;51.040;3.684;2022-08-27T13:04:32;3.50;;;2.00;;
36709;SDS011;22694;51.040;3.684;2022-08-27T13:07:03;2.42;;;1.75;;
36709;SDS011;22694;51.040;3.684;2022-08-27T13:09:30;4.00;;;2.10;;
36709;SDS011;22694;51.040;3.684;2022-08-27T13:11:59;3.22;;;2.08;;
36709;SDS011;22694;51.040;3.684;2022-08-27T13:14:33;3.97;;;2.15;;
36709;SDS011;22694;51.040;3.684;2022-08-27T13:17:08;6.10;;;2.97;;
36709;SDS011;22694;51.040;3.684;2022-08-27T13:19:45;2.92;;;1.90;;
36709;SDS011;22694;51.040;3.684;2022-08-27T13:22:20;3.72;;;2.50;;
36709;SDS011;22694;51.040;3.684;2022-08-27T13:24:48;5.47;;;2.47;;
36709;SDS011;22694;51.040;3.684;2022-08-27T13:27:21;5.68;;;3.20;;
36709;SDS011;22694;51.040;3.684;2022-08-27T13:29:51;3.35;;;2.40;;
36709;SDS011;22694;51.040;3.684;2022-08-27T13:32:18;4.20;;;2.42;;
36709;SDS011;22694;51.040;3.684;2022-08-27T13:34:44;2.80;;;1.90;;
36709;SDS011;22694;51.040;3.684;2022-08-27T13:37:27;3.83;;;2.20;;
36709;SDS011;22694;51.040;3.684;2022-08-27T13:39:58;3.90;;;2.38;;
36709;SDS011;22694;51.040;3.684;2022-08-27T13:42:24;4.93;;;2.40;;
36709;SDS011;22694;51.040;3.684;2022-08-27T13:44:51;3.58;;;2.40;;
36709;SDS011;22694;51.040;3.684;2022-08-27T13:47:22;2.60;;;2.20;;
36709;SDS011;22694;51.040;3.684;2022-08-27T13:49:49;3.13;;;2.40;;
36709;SDS011;22694;51.040;3.684;2022-08-27T13:52:26;4.68;;;2.30;;
36709;SDS011;22694;51.040;3.684;2022-08-27T13:57:30;3.17;;;2.15;;
36709;SDS011;22694;51.040;3.684;2022-08-27T14:00:09;4.15;;;2.22;;
36709;SDS011;22694;51.040;3.684;2022-08-27T14:02:48;3.55;;;2.00;;
36709;SDS011;22694;51.040;3.684;2022-08-27T14:05:24;4.28;;;2.42;;
36709;SDS011;22694;51.040;3.684;2022-08-27T14:10:32;4.50;;;2.97;;
36709;SDS011;22694;51.040;3.684;2022-08-27T14:13:00;4.55;;;3.03;;
36709;SDS011;22694;51.040;3.684;2022-08-27T14:15:42;3.92;;;2.67;;
36709;SDS011;22694;51.040;3.684;2022-08-27T14:20:55;4.57;;;2.70;;
36709;SDS011;22694;51.040;3.684;2022-08-27T14:23:22;3.95;;;3.10;;
36709;SDS011;22694;51.040;3.684;2022-08-27T14:25:49;4.72;;;2.67;;
36709;SDS011;22694;51.040;3.684;2022-08-27T14:28:16;2.78;;;1.90;;
36709;SDS011;22694;51.040;3.684;2022-08-27T14:30:42;4.05;;;2.10;;
36709;SDS011;22694;51.040;3.684;2022-08-27T14:33:07;3.53;;;2.10;;
36709;SDS011;22694;51.040;3.684;2022-08-27T14:35:34;2.45;;;2.00;;
36709;SDS011;22694;51.040;3.684;2022-08-27T14:38:03;1.77;;;1.65;;
36709;SDS011;22694;51.040;3.684;2022-08-27T14:40:54;2.03;;;1.65;;
36709;SDS011;22694;51.040;3.684;2022-08-27T14:43:21;3.00;;;1.90;;
36709;SDS011;22694;51.040;3.684;2022-08-27T14:45:47;1.95;;;1.52;;
36709;SDS011;22694;51.040;3.684;2022-08-27T14:48:27;2.92;;;1.85;;
36709;SDS011;22694;51.040;3.684;2022-08-27T14:50:56;2.95;;;1.95;;
36709;SDS011;22694;51.040;3.684;2022-08-27T14:53:23;2.75;;;1.92;;
36709;SDS011;22694;51.040;3.684;2022-08-27T14:55:49;4.60;;;1.83;;
36709;SDS011;22694;51.040;3.684;2022-08-27T14:58:15;3.60;;;2.03;;
36709;SDS011;22694;51.040;3.684;2022-08-27T15:00:41;3.00;;;1.98;;
36709;SDS011;22694;51.040;3.684;2022-08-27T15:03:09;3.22;;;2.15;;
36709;SDS011;22694;51.040;3.684;2022-08-27T15:05:36;4.22;;;1.73;;
36709;SDS011;22694;51.040;3.684;2022-08-27T15:08:01;3.92;;;1.88;;
36709;SDS011;22694;51.040;3.684;2022-08-27T15:10:28;2.20;;;1.42;;
36709;SDS011;22694;51.040;3.684;2022-08-27T15:12:55;2.47;;;1.58;;
36709;SDS011;22694;51.040;3.684;2022-08-27T15:15:21;2.50;;;1.58;;
36709;SDS011;22694;51.040;3.684;2022-08-27T15:17:47;5.20;;;1.85;;
36709;SDS011;22694;51.040;3.684;2022-08-27T15:20:14;1.98;;;1.30;;
36709;SDS011;22694;51.040;3.684;2022-08-27T15:22:41;2.90;;;1.80;;
36709;SDS011;22694;51.040;3.684;2022-08-27T15:25:09;4.07;;;1.98;;
36709;SDS011;22694;51.040;3.684;2022-08-27T15:27:35;3.83;;;1.90;;
36709;SDS011;22694;51.040;3.684;2022-08-27T15:30:03;4.22;;;2.00;;
36709;SDS011;22694;51.040;3.684;2022-08-27T15:32:35;5.10;;;1.58;;
36709;SDS011;22694;51.040;3.684;2022-08-27T15:35:06;5.03;;;2.00;;
36709;SDS011;22694;51.040;3.684;2022-08-27T15:37:36;5.68;;;1.50;;
36709;SDS011;22694;51.040;3.684;2022-08-27T15:40:02;5.43;;;1.80;;
36709;SDS011;22694;51.040;3.684;2022-08-27T15:42:28;4.18;;;1.80;;
36709;SDS011;22694;51.040;3.684;2022-08-27T15:44:54;8.52;;;2.00;;
36709;SDS011;22694;51.040;3.684;2022-08-27T15:47:21;5.57;;;2.28;;
36709;SDS011;22694;51.040;3.684;2022-08-27T15:49:47;6.53;;;2.22;;
36709;SDS011;22694;51.040;3.684;2022-08-27T15:52:13;3.95;;;1.85;;
36709;SDS011;22694;51.040;3.684;2022-08-27T15:54:41;6.57;;;2.72;;
36709;SDS011;22694;51.040;3.684;2022-08-27T15:57:08;3.25;;;1.88;;
36709;SDS011;22694;51.040;3.684;2022-08-27T15:59:35;5.78;;;1.80;;
36709;SDS011;22694;51.040;3.684;2022-08-27T16:02:01;5.55;;;1.67;;
36709;SDS011;22694;51.040;3.684;2022-08-27T16:04:28;5.60;;;1.70;;
36709;SDS011;22694;51.040;3.684;2022-08-27T16:06:54;2.38;;;1.58;;
36709;SDS011;22694;51.040;3.684;2022-08-27T16:09:20;3.33;;;1.48;;
36709;SDS011;22694;51.040;3.684;2022-08-27T16:11:46;5.70;;;1.80;;
36709;SDS011;22694;51.040;3.684;2022-08-27T16:14:12;3.97;;;1.52;;
36709;SDS011;22694;51.040;3.684;2022-08-27T16:16:39;2.60;;;1.40;;
36709;SDS011;22694;51.040;3.684;2022-08-27T16:19:08;5.35;;;1.77;;
36709;SDS011;22694;51.040;3.684;2022-08-27T16:21:33;3.53;;;1.40;;
36709;SDS011;22694;51.040;3.684;2022-08-27T16:24:00;4.72;;;1.73;;
36709;SDS011;22694;51.040;3.684;2022-08-27T16:26:27;3.15;;;1.42;;
36709;SDS011;22694;51.040;3.684;2022-08-27T16:28:53;2.20;;;1.27;;
36709;SDS011;22694;51.040;3.684;2022-08-27T16:31:19;2.50;;;1.30;;
36709;SDS011;22694;51.040;3.684;2022-08-27T16:33:45;2.78;;;1.40;;
36709;SDS011;22694;51.040;3.684;2022-08-27T16:36:11;2.85;;;1.40;;